Time;durP1;ratioP1;P1;durP2;ratioP2;P2;SDS_P1;SDS_P2;PMS_P1;PMS_P2;Temp;Humidity;BMP_temperature;BMP_pressure;BME280_temperature;BME280_humidity;BME280_pressure;Samples;Min_cycle;Max_cycle;Signal;HPM_P1;HPM_P2
2021/07/25 00:00:16;;;;;;;7.05;5.13;;;;;;;22.85;59.72;100778.91;5011649;28;20105;-60
2021/07/25 00:02:41;;;;;;;7.80;5.07;;;;;;;22.83;59.84;100768.44;5012556;28;20161;-58
2021/07/25 00:05:08;;;;;;;6.07;4.45;;;;;;;22.82;60.05;100769.44;5011669;28;20101;-60
2021/07/25 00:07:34;;;;;;;6.65;4.90;;;;;;;22.82;59.72;100761.47;5012018;28;20029;-60
2021/07/25 00:10:03;;;;;;;6.47;4.80;;;;;;;22.81;59.90;100754.50;5012477;28;20026;-59
2021/07/25 00:12:32;;;;;;;7.38;5.00;;;;;;;22.83;59.50;100759.66;5011258;28;20022;-59
2021/07/25 00:14:57;;;;;;;7.05;5.30;;;;;;;22.82;59.56;100756.16;5012219;28;20033;-60
2021/07/25 00:17:22;;;;;;;6.15;4.65;;;;;;;22.80;59.71;100758.13;5012093;28;20029;-60
2021/07/25 00:19:49;;;;;;;7.10;5.13;;;;;;;22.81;59.67;100753.66;5011592;28;20029;-60
2021/07/25 00:22:14;;;;;;;6.13;4.38;;;;;;;22.80;59.53;100746.69;5012235;28;20034;-60
2021/07/25 00:24:47;;;;;;;6.15;4.43;;;;;;;22.80;59.61;100744.84;5012188;28;20096;-59
2021/07/25 00:27:13;;;;;;;6.05;4.50;;;;;;;22.78;59.81;100746.00;5011424;28;20053;-59
2021/07/25 00:29:38;;;;;;;7.50;4.80;;;;;;;22.80;59.85;100744.03;5011884;28;20470;-60
2021/07/25 00:32:05;;;;;;;6.43;4.50;;;;;;;22.78;59.69;100740.69;5012519;28;20033;-60
2021/07/25 00:34:32;;;;;;;6.80;4.70;;;;;;;22.79;59.50;100747.66;5011101;28;20026;-59
2021/07/25 00:36:59;;;;;;;6.13;4.60;;;;;;;22.77;59.60;100742.50;5012228;28;20112;-60
2021/07/25 00:39:25;;;;;;;6.95;4.70;;;;;;;22.77;59.47;100731.06;5011909;28;20105;-60
2021/07/25 00:41:51;;;;;;;6.43;4.60;;;;;;;22.75;59.85;100725.91;5011163;28;20513;-59
2021/07/25 00:44:20;;;;;;;7.28;4.85;;;;;;;22.76;59.38;100724.91;5011910;28;20026;-59
2021/07/25 00:46:50;;;;;;;6.10;4.30;;;;;;;22.75;59.39;100731.22;5011899;28;20474;-60
2021/07/25 00:49:15;;;;;;;7.15;4.55;;;;;;;22.74;59.51;100726.88;5010609;28;20465;-59
2021/07/25 00:51:43;;;;;;;6.03;4.65;;;;;;;22.76;59.48;100734.69;5012131;28;20097;-59
2021/07/25 00:54:08;;;;;;;6.90;4.72;;;;;;;22.75;59.76;100730.41;5011111;28;20374;-60
2021/07/25 00:56:33;;;;;;;6.05;4.40;;;;;;;22.75;59.44;100739.19;5011822;28;20365;-60
2021/07/25 00:58:59;;;;;;;6.45;4.30;;;;;;;22.72;59.81;100731.53;5012021;28;20072;-59
2021/07/25 01:01:25;;;;;;;6.50;4.43;;;;;;;22.75;59.46;100730.41;5012030;28;20037;-59
2021/07/25 01:04:16;;;;;;;6.75;4.20;;;;;;;22.75;59.66;100733.88;5015560;28;20268;-60
2021/07/25 01:07:17;;;;;;;5.65;4.30;;;;;;;22.73;59.65;100727.91;5007188;28;20041;-59
2021/07/25 01:10:03;;;;;;;6.22;4.00;;;;;;;22.73;59.22;100732.34;4962464;28;20073;-60
2021/07/25 01:12:42;;;;;;;6.55;4.55;;;;;;;22.73;59.32;100727.91;5015092;28;20022;-60
2021/07/25 01:15:13;;;;;;;6.30;4.43;;;;;;;22.72;59.55;100730.72;5015185;28;20030;-59
2021/07/25 01:17:38;;;;;;;6.57;4.45;;;;;;;22.70;59.42;100725.56;5014909;28;20026;-59
2021/07/25 01:20:09;;;;;;;6.03;4.25;;;;;;;22.71;59.52;100719.22;5015266;28;20331;-59
2021/07/25 01:22:40;;;;;;;6.75;3.92;;;;;;;22.69;59.17;100718.56;5014086;28;20515;-59
2021/07/25 01:25:08;;;;;;;6.75;4.28;;;;;;;22.70;59.36;100722.91;5015083;28;20018;-59
2021/07/25 01:27:42;;;;;;;6.30;4.20;;;;;;;22.71;59.53;100716.56;5014674;28;20122;-60
2021/07/25 01:30:11;;;;;;;5.60;4.25;;;;;;;22.70;59.49;100714.06;5014534;28;20030;-59
2021/07/25 01:32:38;;;;;;;5.85;4.05;;;;;;;22.68;59.54;100711.56;5014462;28;20038;-59
2021/07/25 01:35:05;;;;;;;6.80;4.28;;;;;;;22.70;59.30;100719.38;5014970;28;20133;-58
2021/07/25 01:37:31;;;;;;;6.53;4.07;;;;;;;22.69;59.13;100721.22;5013824;28;20466;-59
2021/07/25 01:39:57;;;;;;;7.57;4.47;;;;;;;22.67;59.58;100715.25;5014822;28;20030;-60
2021/07/25 01:42:27;;;;;;;6.10;4.18;;;;;;;22.67;59.39;100711.72;5014512;28;20529;-58
2021/07/25 01:44:52;;;;;;;5.85;4.47;;;;;;;22.69;59.28;100723.06;5013818;28;20026;-59
2021/07/25 01:47:17;;;;;;;7.15;4.07;;;;;;;22.68;59.44;100716.06;5014511;28;20017;-60
2021/07/25 01:49:42;;;;;;;6.83;4.27;;;;;;;22.66;59.24;100713.56;5014470;28;20042;-61
2021/07/25 01:52:07;;;;;;;5.57;3.73;;;;;;;22.67;59.54;100709.06;5013888;28;20370;-59
2021/07/25 01:54:33;;;;;;;5.20;4.07;;;;;;;22.66;59.26;100710.91;5014149;28;20058;-59
2021/07/25 01:56:58;;;;;;;5.78;4.20;;;;;;;22.64;59.18;100708.41;5014738;28;20271;-59
2021/07/25 01:59:32;;;;;;;5.68;3.97;;;;;;;22.66;59.13;100707.44;5013946;28;20026;-59
2021/07/25 02:01:58;;;;;;;6.05;3.90;;;;;;;22.67;59.33;100706.41;5014634;28;20026;-59
2021/07/25 02:04:23;;;;;;;6.03;3.67;;;;;;;22.65;59.51;100714.53;5014297;28;20068;-59
2021/07/25 02:06:51;;;;;;;7.47;4.15;;;;;;;22.66;59.29;100712.75;5013693;28;20022;-59
2021/07/25 02:09:16;;;;;;;5.82;3.88;;;;;;;22.65;59.51;100711.88;5013948;28;20053;-59
2021/07/25 02:11:41;;;;;;;5.80;3.77;;;;;;;22.64;59.14;100712.91;5013681;28;20456;-60
2021/07/25 02:14:08;;;;;;;6.33;3.60;;;;;;;22.64;59.37;100712.91;5013752;28;20286;-58
2021/07/25 02:16:34;;;;;;;5.28;3.65;;;;;;;22.64;59.16;100715.56;5014004;28;20861;-60
2021/07/25 02:19:02;;;;;;;6.88;3.92;;;;;;;22.63;59.13;100712.03;5013492;28;20025;-59
2021/07/25 02:21:28;;;;;;;5.70;3.60;;;;;;;22.63;58.98;100716.53;5013711;28;20101;-60
2021/07/25 02:23:53;;;;;;;5.80;3.80;;;;;;;22.62;59.26;100718.38;5013932;28;20127;-58
2021/07/25 02:26:18;;;;;;;5.63;3.57;;;;;;;22.61;59.28;100713.22;5013224;28;20365;-59
2021/07/25 02:28:44;;;;;;;6.50;3.80;;;;;;;22.58;58.89;100703.72;5014003;28;20615;-60
2021/07/25 02:31:09;;;;;;;6.40;3.72;;;;;;;22.61;59.22;100713.22;5013528;28;20493;-59
2021/07/25 02:33:34;;;;;;;6.18;4.07;;;;;;;22.60;59.08;100704.38;5012259;28;20445;-59
2021/07/25 02:36:03;;;;;;;5.43;3.85;;;;;;;22.59;59.21;100704.56;5013251;28;20034;-59
2021/07/25 02:38:28;;;;;;;5.47;3.75;;;;;;;22.60;59.11;100698.25;5013192;28;20025;-59
2021/07/25 02:40:53;;;;;;;6.57;3.78;;;;;;;22.60;59.09;100700.91;5012809;28;20034;-60
2021/07/25 02:43:19;;;;;;;5.40;3.60;;;;;;;22.58;59.10;100702.91;5013083;28;20084;-59
2021/07/25 02:45:45;;;;;;;7.25;4.00;;;;;;;22.59;59.07;100701.91;5013375;28;20041;-60
2021/07/25 02:48:10;;;;;;;6.03;3.47;;;;;;;22.56;59.04;100694.25;5012521;28;20103;-60
2021/07/25 02:50:35;;;;;;;5.30;3.57;;;;;;;22.57;58.68;100687.94;5012857;28;20058;-59
2021/07/25 02:53:00;;;;;;;7.43;3.60;;;;;;;22.59;58.71;100688.66;5013274;28;20037;-59
2021/07/25 02:55:26;;;;;;;5.63;3.37;;;;;;;22.58;58.74;100693.09;5012708;28;20033;-59
2021/07/25 02:57:52;;;;;;;5.60;3.75;;;;;;;22.55;58.73;100688.09;5013551;28;20623;-59
2021/07/25 03:00:17;;;;;;;9.15;3.78;;;;;;;22.57;58.71;100682.63;5013160;28;20545;-59
2021/07/25 03:02:43;;;;;;;5.70;3.70;;;;;;;22.57;58.99;100691.44;5012668;28;20090;-59
2021/07/25 03:05:09;;;;;;;6.40;3.15;;;;;;;22.57;58.81;100686.16;5013475;28;20116;-60
2021/07/25 03:07:34;;;;;;;5.20;3.60;;;;;;;22.54;58.74;100677.63;5012910;28;20034;-59
2021/07/25 03:09:59;;;;;;;5.93;3.70;;;;;;;22.56;58.98;100678.34;5012466;28;20052;-60
2021/07/25 03:12:25;;;;;;;5.10;3.10;;;;;;;22.56;58.90;100681.00;5013033;28;20484;-60
2021/07/25 03:14:50;;;;;;;5.72;3.65;;;;;;;22.55;58.87;100682.78;5012464;28;20373;-59
2021/07/25 03:17:15;;;;;;;5.45;3.85;;;;;;;22.55;58.89;100681.97;5012969;28;20387;-60
2021/07/25 03:19:41;;;;;;;5.93;3.55;;;;;;;22.54;58.45;100689.09;5012635;28;20446;-59
2021/07/25 03:22:09;;;;;;;5.80;3.75;;;;;;;22.55;58.65;100684.63;5012184;28;20545;-59
2021/07/25 03:24:34;;;;;;;5.03;3.20;;;;;;;22.53;58.76;100686.63;5012160;28;20518;-59
2021/07/25 03:27:00;;;;;;;6.30;3.60;;;;;;;22.52;58.51;100677.78;5012929;28;20430;-60
2021/07/25 03:29:25;;;;;;;5.55;3.22;;;;;;;22.53;58.47;100676.81;5012121;28;20026;-58
2021/07/25 03:31:50;;;;;;;4.97;3.30;;;;;;;22.53;58.51;100678.66;5012966;28;20104;-59
2021/07/25 03:34:16;;;;;;;5.47;3.53;;;;;;;22.51;58.87;100673.50;5012479;28;20080;-59
2021/07/25 03:36:43;;;;;;;6.27;3.70;;;;;;;22.53;58.69;100668.03;5011993;28;20287;-58
2021/07/25 03:39:12;;;;;;;5.47;3.47;;;;;;;22.53;58.62;100668.03;5012751;28;20275;-59
2021/07/25 03:41:40;;;;;;;6.82;3.83;;;;;;;22.52;58.28;100659.19;5012406;28;20065;-59
2021/07/25 03:44:05;;;;;;;4.95;3.33;;;;;;;22.51;58.72;100660.22;5012238;28;20032;-59
2021/07/25 03:46:35;;;;;;;5.15;3.40;;;;;;;22.52;58.80;100669.81;5012596;28;20101;-61
2021/07/25 03:49:00;;;;;;;6.25;3.25;;;;;;;22.51;58.64;100656.72;5012783;28;20026;-59
2021/07/25 03:51:26;;;;;;;4.80;3.40;;;;;;;22.50;58.29;100658.53;5011626;28;20042;-59
2021/07/25 03:53:51;;;;;;;5.03;3.50;;;;;;;22.50;58.25;100661.19;5012886;28;20521;-59
2021/07/25 03:56:19;;;;;;;5.32;3.55;;;;;;;22.50;58.30;100671.81;5012405;28;20065;-60
2021/07/25 03:58:45;;;;;;;5.30;3.55;;;;;;;22.51;58.41;100664.66;5012205;28;20029;-59
2021/07/25 04:01:13;;;;;;;5.72;3.42;;;;;;;22.46;58.65;100660.69;5012548;28;20022;-59
2021/07/25 04:03:38;;;;;;;5.07;3.28;;;;;;;22.49;58.22;100667.47;5016778;28;20482;-60
2021/07/25 04:06:03;;;;;;;4.85;3.10;;;;;;;22.51;58.28;100664.66;5020990;28;20044;-59
2021/07/25 04:08:31;;;;;;;5.05;3.60;;;;;;;22.49;58.52;100664.81;5021681;28;20030;-60
2021/07/25 04:10:57;;;;;;;5.38;3.38;;;;;;;22.49;58.34;100659.53;5023899;28;20026;-60
2021/07/25 04:13:23;;;;;;;5.95;3.47;;;;;;;22.49;58.72;100666.66;5024549;28;20069;-60
2021/07/25 04:15:48;;;;;;;5.20;3.40;;;;;;;22.49;58.34;100656.03;5025432;28;20034;-60
2021/07/25 04:18:16;;;;;;;6.43;3.75;;;;;;;22.48;58.28;100668.50;5026141;28;20470;-60
2021/07/25 04:20:41;;;;;;;5.60;3.58;;;;;;;22.49;58.23;100664.00;5026589;28;20073;-59
2021/07/25 04:23:08;;;;;;;4.60;3.00;;;;;;;22.46;58.22;100663.34;5027585;28;20026;-60
2021/07/25 04:25:34;;;;;;;4.80;3.03;;;;;;;22.48;58.08;100668.50;5026250;28;20036;-60
2021/07/25 04:28:01;;;;;;;6.70;3.42;;;;;;;22.48;58.28;100676.47;5027204;28;20183;-60
2021/07/25 04:30:27;;;;;;;7.00;3.40;;;;;;;22.48;58.29;100672.94;5026422;28;20072;-60
2021/07/25 04:32:53;;;;;;;4.95;3.15;;;;;;;22.47;58.49;100674.78;5025753;28;20030;-60
2021/07/25 04:35:19;;;;;;;5.28;3.20;;;;;;;22.46;58.25;100681.06;5025880;28;20022;-60
2021/07/25 04:37:55;;;;;;;5.80;3.63;;;;;;;22.46;58.11;100675.75;5019387;28;20526;-59
2021/07/25 04:40:21;;;;;;;4.90;3.42;;;;;;;22.44;58.07;100673.25;5019228;28;20030;-60
2021/07/25 04:42:50;;;;;;;5.35;3.80;;;;;;;22.46;58.50;100671.31;5023432;28;20022;-59
2021/07/25 04:45:20;;;;;;;4.88;3.38;;;;;;;22.46;58.36;100670.44;5019817;28;20033;-59
2021/07/25 04:47:58;;;;;;;4.97;3.40;;;;;;;22.46;58.05;100666.00;5015242;28;20041;-59
2021/07/25 04:50:28;;;;;;;5.65;3.30;;;;;;;22.45;57.86;100668.81;5015863;28;20111;-60
2021/07/25 04:53:00;;;;;;;6.35;3.58;;;;;;;22.45;58.42;100672.28;5016511;28;20121;-59
2021/07/25 04:55:31;;;;;;;4.82;3.20;;;;;;;22.44;58.14;100670.59;5015012;28;20083;-60
2021/07/25 04:58:07;;;;;;;5.47;3.58;;;;;;;22.43;58.27;100665.44;5016171;28;20053;-59
2021/07/25 05:00:43;;;;;;;6.57;3.47;;;;;;;22.45;58.16;100666.16;5015153;28;20025;-60
2021/07/25 05:03:09;;;;;;;5.25;3.30;;;;;;;22.45;58.25;100674.13;5016831;28;20394;-59
2021/07/25 05:05:35;;;;;;;5.22;3.20;;;;;;;22.45;58.34;100680.25;5015431;28;20481;-58
2021/07/25 05:08:01;;;;;;;5.75;3.28;;;;;;;22.45;58.47;100676.78;5014815;28;20076;-59
2021/07/25 05:10:28;;;;;;;5.03;3.20;;;;;;;22.45;58.00;100672.28;5015236;28;20029;-59
2021/07/25 05:13:10;;;;;;;5.60;3.42;;;;;;;22.45;58.18;100668.81;5015178;28;20363;-60
2021/07/25 05:15:44;;;;;;;6.00;3.40;;;;;;;22.45;58.20;100680.25;5014449;28;20045;-59
2021/07/25 05:18:20;;;;;;;5.30;3.40;;;;;;;22.45;58.16;100680.25;5015106;28;20042;-59
2021/07/25 05:21:09;;;;;;;5.25;3.33;;;;;;;22.45;58.32;100682.09;5015207;28;20057;-59
2021/07/25 05:23:45;;;;;;;5.03;3.17;;;;;;;22.44;58.40;100683.88;5014222;28;20657;-60
2021/07/25 05:26:12;;;;;;;6.45;3.33;;;;;;;22.45;58.25;100688.22;5015193;28;20029;-60
2021/07/25 05:28:39;;;;;;;4.75;2.80;;;;;;;22.43;58.09;100687.56;5013969;28;20026;-61
2021/07/25 05:31:08;;;;;;;6.70;3.55;;;;;;;22.45;58.12;100685.56;5014291;28;20072;-59
2021/07/25 05:33:34;;;;;;;5.45;3.58;;;;;;;22.46;58.34;100683.72;5014611;28;20030;-59
2021/07/25 05:35:59;;;;;;;5.70;3.40;;;;;;;22.46;58.13;100683.72;5014365;28;20536;-60
2021/07/25 05:38:30;;;;;;;5.53;3.35;;;;;;;22.45;58.19;100682.91;5014806;28;20058;-59
2021/07/25 05:40:55;;;;;;;5.70;3.50;;;;;;;22.46;58.02;100678.41;5014829;28;20121;-59
2021/07/25 05:43:21;;;;;;;5.32;3.30;;;;;;;22.46;58.27;100684.59;5013846;28;20190;-59
2021/07/25 05:45:46;;;;;;;4.85;3.47;;;;;;;22.46;58.17;100678.41;5014730;28;20026;-59
2021/07/25 05:48:11;;;;;;;5.00;3.40;;;;;;;22.46;58.27;100686.38;5013561;28;20033;-60
2021/07/25 05:50:37;;;;;;;6.07;3.90;;;;;;;22.46;58.26;100681.94;5013500;28;20292;-59
2021/07/25 05:53:04;;;;;;;5.20;3.40;;;;;;;22.45;58.56;100684.75;5014829;28;20037;-59
2021/07/25 05:55:33;;;;;;;5.35;3.38;;;;;;;22.46;58.19;100687.25;5014320;28;20092;-59
2021/07/25 05:57:59;;;;;;;5.55;3.10;;;;;;;22.46;58.23;100681.94;5013926;28;20029;-60
2021/07/25 06:00:25;;;;;;;5.93;3.40;;;;;;;22.45;58.38;100682.91;5014073;28;20033;-60
2021/07/25 06:03:00;;;;;;;4.53;2.97;;;;;;;22.46;58.15;100684.59;5014442;28;20026;-60
2021/07/25 06:05:27;;;;;;;5.07;3.22;;;;;;;22.46;58.32;100687.25;5013557;28;20032;-60
2021/07/25 06:07:54;;;;;;;5.00;3.40;;;;;;;22.46;58.20;100681.94;5014357;28;20471;-59
2021/07/25 06:10:21;;;;;;;6.70;3.47;;;;;;;22.47;58.22;100682.75;5013842;28;20030;-59
2021/07/25 06:12:47;;;;;;;5.13;3.30;;;;;;;22.47;58.52;100669.47;5013543;28;20407;-59
2021/07/25 06:15:13;;;;;;;7.25;3.28;;;;;;;22.47;58.52;100674.78;5014097;28;20144;-63
2021/07/25 06:17:38;;;;;;;5.63;3.22;;;;;;;22.45;58.16;100659.00;5013684;28;20068;-60
2021/07/25 06:20:04;;;;;;;5.28;3.53;;;;;;;22.46;58.60;100670.44;5014122;28;20065;-60
2021/07/25 06:23:03;;;;;;;6.07;3.08;;;;;;;22.47;58.55;100672.13;5013893;28;20029;-59
2021/07/25 06:25:31;;;;;;;5.88;3.70;;;;;;;22.48;58.22;100670.28;5010094;28;20362;-59
2021/07/25 06:27:59;;;;;;;6.00;3.47;;;;;;;22.49;58.15;100674.63;5014214;28;20108;-59
2021/07/25 06:30:28;;;;;;;5.35;3.30;;;;;;;22.46;58.33;100673.97;5013454;28;20463;-59
2021/07/25 06:33:08;;;;;;;6.72;3.13;;;;;;;22.41;58.19;100670.94;5013185;28;20380;-60
2021/07/25 06:35:37;;;;;;;5.07;3.22;;;;;;;22.47;58.36;100677.44;5013366;28;20105;-60
2021/07/25 06:38:08;;;;;;;5.43;3.20;;;;;;;22.49;58.33;100688.72;5013699;28;20117;-60
2021/07/25 06:40:34;;;;;;;5.10;2.97;;;;;;;22.51;58.07;100683.25;5012964;28;20112;-58
2021/07/25 06:43:00;;;;;;;7.80;3.35;;;;;;;22.51;58.44;100691.22;5013872;28;20105;-58
2021/07/25 06:45:27;;;;;;;6.88;3.42;;;;;;;22.48;58.43;100678.25;5013321;28;20026;-59
2021/07/25 06:47:52;;;;;;;4.88;3.00;;;;;;;22.52;58.52;100691.06;5012838;28;20355;-58
2021/07/25 06:50:20;;;;;;;5.75;3.45;;;;;;;22.54;58.94;100685.59;5013134;28;20049;-58
2021/07/25 06:52:46;;;;;;;5.97;3.75;;;;;;;22.55;59.12;100689.94;5013417;28;20497;-58
2021/07/25 06:55:11;;;;;;;5.32;3.17;;;;;;;22.58;58.89;100689.63;5012946;28;20386;-59
2021/07/25 06:57:37;;;;;;;6.60;3.20;;;;;;;22.60;59.27;100692.94;5016493;28;20021;-59
2021/07/25 07:00:22;;;;;;;5.18;3.25;;;;;;;22.64;59.56;100689.81;5015868;28;20021;-56
2021/07/25 07:02:49;;;;;;;5.50;3.03;;;;;;;22.68;58.92;100700.13;5015465;28;20049;-59
2021/07/25 07:05:19;;;;;;;5.07;2.90;;;;;;;22.64;59.10;100692.47;5015223;28;20022;-59
2021/07/25 07:07:50;;;;;;;5.63;2.65;;;;;;;22.71;59.45;100707.78;5015459;28;20076;-59
2021/07/25 07:10:18;;;;;;;7.22;3.28;;;;;;;22.72;59.32;100693.53;5014766;28;20033;-59
2021/07/25 07:12:47;;;;;;;4.95;3.28;;;;;;;22.77;59.14;100693.88;5015043;28;20056;-60
2021/07/25 07:15:14;;;;;;;5.25;3.35;;;;;;;22.81;59.12;100705.81;5015584;28;20121;-62
2021/07/25 07:17:40;;;;;;;4.75;3.03;;;;;;;22.82;59.13;100702.19;5015591;28;20033;-61
2021/07/25 07:20:08;;;;;;;6.30;3.15;;;;;;;22.87;59.47;100704.38;5015957;28;20042;-60
2021/07/25 07:22:33;;;;;;;4.55;2.83;;;;;;;22.87;59.06;100705.19;5015533;28;20058;-59
2021/07/25 07:24:59;;;;;;;4.60;2.45;;;;;;;22.91;59.02;100706.56;5016595;28;20049;-61
2021/07/25 07:27:32;;;;;;;4.82;2.70;;;;;;;22.94;59.43;100708.03;5015980;28;20026;-58
2021/07/25 07:29:58;;;;;;;5.22;3.00;;;;;;;22.89;59.14;100703.22;5014300;28;20080;-59
2021/07/25 07:32:24;;;;;;;7.82;3.10;;;;;;;22.94;58.89;100702.72;5014762;28;20030;-59
2021/07/25 07:34:49;;;;;;;5.07;3.08;;;;;;;22.93;59.29;100695.75;5015922;28;20038;-61
2021/07/25 07:37:14;;;;;;;6.60;2.85;;;;;;;23.00;59.45;100705.59;5013859;28;20551;-60
2021/07/25 07:39:41;;;;;;;7.28;3.08;;;;;;;23.03;59.44;100700.94;5016298;28;20498;-61
2021/07/25 07:42:08;;;;;;;5.47;2.83;;;;;;;23.03;59.61;100700.94;5014564;28;20026;-60
2021/07/25 07:44:38;;;;;;;5.35;3.20;;;;;;;23.06;59.30;100695.31;5015735;28;20416;-60
2021/07/25 07:47:04;;;;;;;5.60;2.80;;;;;;;23.07;59.55;100703.13;5015390;28;20033;-62
2021/07/25 07:49:29;;;;;;;5.25;2.90;;;;;;;23.08;59.72;100699.50;5015492;28;20393;-60
2021/07/25 07:51:58;;;;;;;5.85;2.95;;;;;;;23.09;59.70;100698.50;5017236;28;20034;-60
2021/07/25 07:54:23;;;;;;;5.32;2.97;;;;;;;23.09;59.65;100700.34;5015992;28;20509;-59
2021/07/25 07:56:48;;;;;;;7.53;2.75;;;;;;;23.10;59.63;100708.16;5015389;28;20030;-59
2021/07/25 07:59:21;;;;;;;5.80;2.88;;;;;;;23.11;59.56;100704.47;5015701;28;20022;-59
2021/07/25 08:01:46;;;;;;;5.00;2.75;;;;;;;23.08;59.43;100699.50;5016331;28;20041;-59
2021/07/25 08:04:12;;;;;;;6.55;3.10;;;;;;;23.09;59.26;100703.81;5015200;28;20034;-59
2021/07/25 08:06:37;;;;;;;6.57;3.13;;;;;;;23.11;59.45;100709.78;5015315;28;20021;-59
2021/07/25 08:09:06;;;;;;;6.03;2.77;;;;;;;23.12;59.28;100715.97;5015508;28;20113;-59
2021/07/25 08:11:31;;;;;;;6.03;2.80;;;;;;;23.10;59.19;100702.84;5012645;28;20283;-61
2021/07/25 08:13:57;;;;;;;5.25;2.80;;;;;;;23.13;59.24;100704.31;5015377;28;20028;-59
2021/07/25 08:16:25;;;;;;;4.93;2.60;;;;;;;23.14;59.46;100716.63;5015689;28;20072;-59
2021/07/25 08:18:59;;;;;;;4.70;2.60;;;;;;;23.14;59.30;100709.47;5015430;28;20109;-59
2021/07/25 08:21:24;;;;;;;5.65;2.90;;;;;;;23.14;59.19;100712.13;5014687;28;20053;-59
2021/07/25 08:23:50;;;;;;;5.22;2.80;;;;;;;23.15;59.09;100718.31;5014792;28;20030;-58
2021/07/25 08:26:15;;;;;;;7.07;2.72;;;;;;;23.12;59.24;100714.13;5013416;28;20018;-58
2021/07/25 08:28:41;;;;;;;6.18;2.70;;;;;;;23.14;59.67;100725.44;5014465;28;20058;-57
2021/07/25 08:31:06;;;;;;;4.60;2.55;;;;;;;23.14;59.29;100735.22;5014488;28;20022;-61
2021/07/25 08:33:45;;;;;;;4.70;2.70;;;;;;;23.14;59.62;100721.94;5014171;28;20026;-60
2021/07/25 08:36:22;;;;;;;6.15;2.80;;;;;;;23.17;59.21;100725.09;5015705;28;20022;-60
2021/07/25 08:38:48;;;;;;;4.72;2.55;;;;;;;23.18;59.16;100724.13;5014265;28;20026;-58
2021/07/25 08:41:35;;;;;;;5.68;3.05;;;;;;;23.18;59.24;100723.31;5014285;28;20075;-59
2021/07/25 08:44:22;;;;;;;5.78;2.55;;;;;;;23.19;59.38;100722.28;4972180;28;20039;-60
2021/07/25 08:46:53;;;;;;;5.18;2.60;;;;;;;23.14;59.45;100714.78;5012200;28;20066;-58
2021/07/25 08:49:31;;;;;;;4.32;2.55;;;;;;;23.20;59.12;100726.63;5013182;28;20100;-60
2021/07/25 08:52:03;;;;;;;5.78;2.55;;;;;;;23.18;59.33;100718.81;5014706;28;20029;-59
2021/07/25 08:54:29;;;;;;;4.63;2.53;;;;;;;23.21;59.00;100727.44;5013061;28;20450;-60
2021/07/25 08:57:00;;;;;;;4.43;2.60;;;;;;;23.22;59.23;100732.59;5013636;28;20084;-59
2021/07/25 08:59:29;;;;;;;4.28;2.55;;;;;;;23.20;59.30;100721.31;5013074;28;20057;-59
2021/07/25 09:02:00;;;;;;;5.00;2.70;;;;;;;23.23;59.20;100722.81;5014131;28;20493;-59
2021/07/25 09:04:29;;;;;;;4.85;2.80;;;;;;;23.22;58.89;100729.13;5013728;28;20124;-60
2021/07/25 09:06:55;;;;;;;5.10;2.35;;;;;;;23.21;58.91;100730.97;5013207;28;20049;-59
2021/07/25 09:09:20;;;;;;;5.45;2.95;;;;;;;23.21;59.28;100728.28;5013668;28;20386;-59
2021/07/25 09:11:53;;;;;;;5.03;2.65;;;;;;;23.22;58.87;100724.63;5014171;28;20378;-62
2021/07/25 09:14:19;;;;;;;5.88;2.60;;;;;;;23.22;59.29;100726.47;5013477;28;20025;-60
2021/07/25 09:16:44;;;;;;;4.38;2.47;;;;;;;23.25;58.83;100728.81;5014983;28;20040;-59
2021/07/25 09:19:10;;;;;;;4.63;2.50;;;;;;;23.27;59.18;100732.13;5014599;28;20022;-59
2021/07/25 09:21:44;;;;;;;5.00;2.45;;;;;;;23.27;59.14;100732.94;5013090;28;20065;-59
2021/07/25 09:24:34;;;;;;;4.85;2.55;;;;;;;23.19;59.05;100724.94;5015853;28;20018;-59
2021/07/25 09:27:04;;;;;;;4.40;2.28;;;;;;;23.26;59.12;100728.63;5017200;28;20069;-58
2021/07/25 09:29:33;;;;;;;6.05;2.60;;;;;;;23.25;59.16;100723.47;5016291;28;20025;-59
2021/07/25 09:32:15;;;;;;;4.45;2.17;;;;;;;23.23;59.27;100726.31;5017160;28;20447;-58
2021/07/25 09:34:50;;;;;;;4.00;2.33;;;;;;;23.24;59.19;100721.81;5017997;28;20030;-61
2021/07/25 09:37:20;;;;;;;4.38;2.40;;;;;;;23.21;59.25;100719.47;5018119;28;20109;-60
2021/07/25 09:39:48;;;;;;;4.13;2.40;;;;;;;23.24;59.09;100725.31;5017341;28;20026;-60
2021/07/25 09:42:14;;;;;;;5.05;2.50;;;;;;;23.24;59.33;100722.66;5016842;28;20052;-60
2021/07/25 09:44:53;;;;;;;5.30;2.55;;;;;;;23.24;59.20;100721.81;5018310;28;20034;-60
2021/07/25 09:47:28;;;;;;;6.38;2.42;;;;;;;23.27;59.04;100717.00;5017624;28;20029;-59
2021/07/25 09:50:04;;;;;;;5.13;2.20;;;;;;;23.25;59.13;100721.66;5016625;28;20122;-60
2021/07/25 09:52:34;;;;;;;5.50;2.70;;;;;;;23.27;59.07;100721.50;5016980;28;20022;-60
2021/07/25 09:55:07;;;;;;;6.75;2.45;;;;;;;23.23;58.68;100713.00;5017435;28;20022;-60
2021/07/25 09:57:37;;;;;;;5.25;2.40;;;;;;;23.31;59.02;100717.53;5015717;28;20212;-60
2021/07/25 10:00:13;;;;;;;4.70;2.42;;;;;;;23.28;59.17;100723.16;5016225;28;20056;-60
2021/07/25 10:02:41;;;;;;;4.18;2.25;;;;;;;23.31;58.68;100718.34;5016396;28;20018;-62
2021/07/25 10:05:14;;;;;;;6.82;2.50;;;;;;;23.34;58.88;100730.50;5016375;28;20034;-59
2021/07/25 10:07:41;;;;;;;5.28;2.58;;;;;;;23.32;59.03;100716.50;5016410;28;20128;-60
2021/07/25 10:10:09;;;;;;;5.28;2.03;;;;;;;23.34;58.61;100719.84;5015761;28;20033;-60
2021/07/25 10:12:36;;;;;;;4.32;2.20;;;;;;;23.36;58.91;100721.34;5016094;28;20453;-61
2021/07/25 10:15:04;;;;;;;5.95;2.50;;;;;;;23.37;58.83;100724.84;5016140;28;20036;-61
2021/07/25 10:17:34;;;;;;;4.90;2.30;;;;;;;23.39;58.89;100724.69;5016353;28;20030;-61
2021/07/25 10:20:02;;;;;;;4.15;2.15;;;;;;;23.39;58.55;100714.88;5017262;28;20036;-59
2021/07/25 10:22:32;;;;;;;4.50;2.03;;;;;;;23.40;58.68;100713.03;5016428;28;20025;-60
2021/07/25 10:24:59;;;;;;;4.35;2.25;;;;;;;23.40;58.81;100713.91;5015495;28;20470;-60
2021/07/25 10:27:26;;;;;;;6.18;2.22;;;;;;;23.41;58.56;100707.56;5016376;28;20053;-59
2021/07/25 10:29:53;;;;;;;4.22;1.98;;;;;;;23.39;58.84;100706.06;5016624;28;20473;-61
2021/07/25 10:32:20;;;;;;;3.97;2.03;;;;;;;23.42;58.58;100713.72;5016141;28;20108;-59
2021/07/25 10:34:46;;;;;;;4.22;2.50;;;;;;;23.42;58.87;100719.06;5016266;28;20022;-59
2021/07/25 10:37:12;;;;;;;5.07;2.10;;;;;;;23.40;58.58;100719.22;5016903;28;20026;-59
2021/07/25 10:39:42;;;;;;;6.25;2.40;;;;;;;23.39;58.88;100706.06;5015970;28;20172;-59
2021/07/25 10:42:18;;;;;;;4.70;2.20;;;;;;;23.38;58.58;100704.41;5017193;28;20026;-60
2021/07/25 10:44:43;;;;;;;4.70;2.13;;;;;;;23.42;58.92;100708.41;5018060;28;20504;-59
2021/07/25 10:47:18;;;;;;;4.72;2.13;;;;;;;23.34;58.47;100691.44;5017020;28;20034;-60
2021/07/25 10:49:43;;;;;;;4.45;2.10;;;;;;;23.40;58.95;100707.72;5017731;28;20050;-60
2021/07/25 10:52:11;;;;;;;4.03;1.90;;;;;;;23.44;59.00;100711.72;5017553;28;20033;-59
2021/07/25 10:54:47;;;;;;;4.18;2.20;;;;;;;23.44;58.64;100704.56;5017065;28;20469;-59
2021/07/25 10:57:14;;;;;;;4.70;2.25;;;;;;;23.46;58.85;100701.75;5015177;28;20025;-61
2021/07/25 10:59:45;;;;;;;4.80;2.30;;;;;;;23.46;58.53;100702.59;5013767;28;20037;-62
2021/07/25 11:02:13;;;;;;;5.93;2.30;;;;;;;23.43;58.69;100702.94;5013750;28;20025;-60
2021/07/25 11:05:00;;;;;;;4.88;2.28;;;;;;;23.44;58.33;100703.75;5013147;28;20419;-60
2021/07/25 11:07:25;;;;;;;5.15;2.30;;;;;;;23.45;58.39;100697.44;5012448;28;20129;-62
2021/07/25 11:10:05;;;;;;;8.27;2.30;;;;;;;23.45;58.18;100706.25;5013562;28;20032;-62
2021/07/25 11:12:52;;;;;;;4.85;2.38;;;;;;;23.45;58.65;100703.59;5013230;28;20026;-61
2021/07/25 11:15:33;;;;;;;5.45;2.10;;;;;;;23.42;58.73;100698.59;5014421;28;20026;-61
2021/07/25 11:18:08;;;;;;;4.65;2.22;;;;;;;23.42;58.73;100697.78;5015421;28;20030;-61
2021/07/25 11:20:57;;;;;;;5.30;2.25;;;;;;;23.44;58.94;100690.47;5014089;28;20065;-59
2021/07/25 11:23:22;;;;;;;4.30;2.22;;;;;;;23.43;59.07;100699.41;5014126;28;20034;-59
2021/07/25 11:25:49;;;;;;;4.97;2.17;;;;;;;23.41;58.84;100696.09;5014524;28;20021;-59
2021/07/25 11:28:38;;;;;;;4.57;2.22;;;;;;;23.40;59.22;100703.25;5013932;28;20030;-60
2021/07/25 11:31:03;;;;;;;4.28;2.00;;;;;;;23.41;59.26;100701.41;5015059;28;20196;-61